Bei Facebook empfehlenBei Twitter postenGoogle plusPinterest

Das Wetter im Erzgebirge am 15.03.2017

Wetter und Klima am 15.03.2017 Holzhau im Erzgebirge (630m ü.NN)
Letzte gemessene Temperatur und Uhrzeit der Messung23:45:00 Uhr-2.90 °C
Temperatur (Maximum / Höchstwert) und Uhrzeit der Messung14:45:00 Uhr9.90 °C
Temperatur (Minimum / Tiefstwert) und Uhrzeit der Messung23:45:00-2.90 °C
Errechneter Absolutwert der Temperaturschwankungen zwischen Tmin und Tmax des Tages12.80 K
Errechnete Tagesmitteltemperatur4.75729 °C
Gesamt - Niederschlag des Tages (in flüssiger Form)0.00 Liter / m²
Luftdruck (Maximum / Höchstwert) und Zeitpunkt der Messung11:30:00 Uhr1024.10 hPa
Luftdruck (Minimum / Tiefstwert) und Zeitpunkt der Messung05:00:00 Uhr1022.20 hPa
Errechneter Absolutwert der Luftdruckschwankungen des Tages1.90 hPa
Höchste gemessene Windgeschwindigkeit und Uhrzeit der Messung13:30:00 Uhr26.64 km/h
Errechnete Windhäufigkeit in Relation zu den Messwerten des Tages38.54167 %
Niedrigste Windkühle (Windchill) und Zeitpunkt der Messung23:45:00 Uhr-2.90 °C
Taupunkt (Maximum / Höchstwert) und Uhrzeit der Messung10:15:00 Uhr5.20 °C
Taupunkt (Minimum / Tiefstwert) und Uhrzeit der Messung23:30:00-5.10 °C
Anzahl der automatisch eingelesenen Messwerte 96

Detaillierte Wetter- und Klima- Messwerte für den 15.03.2017 in Holzhau im Erzgebirge (630m ü.NN)
ZeitTemperaturLuftdruckRel. LuftfeuchteWindWindrichtungWindchillTaupunktNiederschlag l/m²
23:45:00-2.90 °C1023.10 hPa87.00 %-5.00 °C 
23:30:00-2.80 °C1023.30 hPa86.00 %-5.10 °C 
23:15:00-2.70 °C1023.20 hPa85.00 %-5.10 °C 
23:00:00-2.50 °C1023.40 hPa84.00 %-5.10 °C 
22:45:00-2.40 °C1023.30 hPa84.00 %-5.00 °C 
22:30:00-2.10 °C1023.40 hPa83.00 %-4.90 °C 
22:15:00-1.80 °C1023.30 hPa83.00 %-4.60 °C 
22:00:00-1.70 °C1023.50 hPa82.00 %-4.70 °C 
21:45:00-1.60 °C1023.30 hPa81.00 %-4.80 °C 
21:30:00-1.20 °C1023.40 hPa80.00 %-4.60 °C 
21:15:00-0.70 °C1023.60 hPa79.00 %-4.30 °C 
21:00:00-0.50 °C1023.60 hPa78.00 %-4.30 °C 
20:45:000.10 °C1023.30 hPa77.00 %-3.40 °C 
20:30:000.40 °C1023.40 hPa76.00 %-3.30 °C 
20:15:000.90 °C1023.40 hPa75.00 %-3.00 °C 
20:00:000.90 °C1023.30 hPa74.00 %-3.20 °C 
19:45:001.30 °C1023.30 hPa72.00 %-3.20 °C 
19:30:002.00 °C1023.30 hPa70.00 %-2.90 °C 
19:15:002.60 °C1023.30 hPa69.00 %-2.50 °C 
19:00:003.10 °C1023.20 hPa67.00 %-2.40 °C 
18:45:003.80 °C1023.40 hPa66.00 %-2.00 °C 
18:30:004.40 °C1023.40 hPa64.00 %-1.80 °C 
18:15:004.90 °C1023.30 hPa61.00 %-2.00 °C 
18:00:005.80 °C1023.40 hPa59.00 %-1.60 °C 
17:45:006.50 °C1023.30 hPa58.00 %3.60 km/hWNW6.50 °C-1.20 °C 
17:30:007.30 °C1023.30 hPa56.00 %1.44 km/hNNW7.30 °C-0.90 °C 
17:15:007.60 °C1023.30 hPa55.00 %12.60 km/hW5.30 °C-0.80 °C 
17:00:008.00 °C1023.20 hPa54.00 %2.52 km/hWNW8.00 °C-0.70 °C 
16:45:008.70 °C1023.40 hPa55.00 %4.68 km/hW8.70 °C0.20 °C 
16:30:009.00 °C1023.30 hPa57.00 %1.00 °C 
16:15:009.30 °C1023.20 hPa56.00 %9.00 km/hNNW8.00 °C1.00 °C 
16:00:009.60 °C1023.30 hPa56.00 %6.12 km/hW9.00 °C1.30 °C 
15:45:009.20 °C1023.30 hPa56.00 %8.28 km/hNNO8.00 °C0.90 °C 
15:30:009.10 °C1023.20 hPa57.00 %1.00 °C 
15:15:009.30 °C1023.20 hPa59.00 %1.80 km/hOSO9.30 °C1.70 °C 
15:00:009.80 °C1023.30 hPa57.00 %6.84 km/hNNW9.00 °C1.70 °C 
14:45:009.90 °C1023.10 hPa56.00 %1.50 °C 
14:30:009.30 °C1023.20 hPa59.00 %2.16 km/hNW9.30 °C1.70 °C 
14:15:009.30 °C1023.20 hPa60.00 %5.76 km/hWSW8.70 °C1.90 °C 
14:00:009.40 °C1023.30 hPa60.00 %3.24 km/hNW9.40 °C2.00 °C 
13:45:009.60 °C1023.20 hPa62.00 %7.56 km/hNW8.60 °C2.70 °C 
13:30:009.20 °C1023.20 hPa61.00 %26.64 km/hN5.80 °C2.10 °C 
13:15:009.80 °C1023.40 hPa62.00 %10.80 km/hNNW8.30 °C2.90 °C 
13:00:009.30 °C1023.40 hPa65.00 %4.68 km/hNW9.30 °C3.10 °C 
12:45:008.80 °C1023.60 hPa67.00 %10.08 km/hNO7.20 °C3.00 °C 
12:30:008.90 °C1023.50 hPa72.00 %7.92 km/hW7.70 °C4.10 °C 
12:15:008.40 °C1023.40 hPa73.00 %5.76 km/hWNW7.70 °C3.80 °C 
12:00:008.40 °C1023.60 hPa76.00 %4.68 km/hWNW8.40 °C4.40 °C 
11:45:007.90 °C1023.90 hPa78.00 %13.32 km/hWSW5.60 °C4.30 °C 
11:30:008.10 °C1024.10 hPa79.00 %10.08 km/hNW6.30 °C4.70 °C 
11:15:008.30 °C1024.00 hPa80.00 %5.76 km/hNW7.60 °C5.10 °C 
11:00:007.70 °C1023.90 hPa83.00 %3.96 km/hNNW7.70 °C5.00 °C 
10:45:007.60 °C1023.70 hPa83.00 %2.16 km/hW7.60 °C4.90 °C 
10:30:007.50 °C1023.40 hPa85.00 %1.44 km/hWNW7.50 °C5.10 °C 
10:15:007.20 °C1023.70 hPa87.00 %4.32 km/hW7.20 °C5.20 °C 
10:00:006.60 °C1023.80 hPa90.00 %5.10 °C 
09:45:006.10 °C1023.90 hPa91.00 %4.70 °C 
09:30:005.90 °C1023.90 hPa91.00 %4.50 °C 
09:15:005.60 °C1023.80 hPa92.00 %0.72 km/hWNW5.60 °C4.40 °C 
09:00:005.40 °C1023.60 hPa93.00 %1.80 km/hNW5.40 °C4.40 °C 
08:45:005.20 °C1023.80 hPa93.00 %4.20 °C 
08:30:005.10 °C1023.50 hPa93.00 %4.10 °C 
08:15:004.90 °C1023.20 hPa93.00 %3.90 °C 
08:00:004.90 °C1023.30 hPa93.00 %3.90 °C 
07:45:004.80 °C1023.00 hPa93.00 %3.80 °C 
07:30:004.60 °C1023.20 hPa92.00 %3.40 °C 
07:15:004.50 °C1023.30 hPa92.00 %3.24 km/hNNW4.50 °C3.30 °C 
07:00:004.50 °C1023.10 hPa92.00 %3.30 °C 
06:45:004.50 °C1022.90 hPa92.00 %2.88 km/hWSW4.50 °C3.30 °C 
06:30:004.60 °C1023.20 hPa91.00 %3.30 °C 
06:15:004.80 °C1022.90 hPa89.00 %3.10 °C 
06:00:005.30 °C1022.80 hPa86.00 %4.68 km/hNNW5.30 °C3.20 °C 
05:45:005.40 °C1022.50 hPa85.00 %4.68 km/hWNW5.40 °C3.10 °C 
05:30:005.50 °C1022.50 hPa84.00 %3.00 °C 
05:15:005.60 °C1022.30 hPa84.00 %3.96 km/hNW5.60 °C3.10 °C 
05:00:005.60 °C1022.20 hPa84.00 %3.10 °C 
04:45:005.60 °C1022.20 hPa84.00 %3.10 °C 
04:30:005.60 °C1022.40 hPa84.00 %3.10 °C 
04:15:005.60 °C1022.30 hPa84.00 %3.10 °C 
04:00:005.40 °C1022.30 hPa84.00 %2.90 °C 
03:45:005.30 °C1022.30 hPa85.00 %3.00 °C 
03:30:005.20 °C1022.30 hPa86.00 %3.60 km/hW5.20 °C3.10 °C 
03:15:005.00 °C1022.40 hPa87.00 %3.24 km/hSW5.00 °C3.00 °C 
03:00:004.90 °C1022.40 hPa87.00 %2.90 °C 
02:45:004.80 °C1022.60 hPa88.00 %3.00 °C 
02:30:004.60 °C1022.70 hPa88.00 %2.80 °C 
02:15:004.60 °C1023.00 hPa89.00 %2.90 °C 
02:00:004.40 °C1023.20 hPa90.00 %2.90 °C 
01:45:004.10 °C1023.30 hPa92.00 %2.90 °C 
01:30:003.40 °C1023.30 hPa92.00 %2.20 °C 
01:15:002.80 °C1023.50 hPa92.00 %1.60 °C 
01:00:001.70 °C1023.60 hPa92.00 %0.50 °C 
00:45:000.40 °C1023.80 hPa91.00 %-0.90 °C 
00:30:00-0.20 °C1023.60 hPa91.00 %-1.60 °C 
00:15:00-0.50 °C1023.70 hPa91.00 %-1.90 °C 
00:00:00-0.70 °C1023.90 hPa90.00 %-2.30 °C 

Permanenter Link zu dieser Seite: Wetter im Erzgebirge am 15.03.2017
Performance-Info: Die Erstellung der Seite / Statistik(en) / Tabelle(n) erforderte 5 Datenbankserver-Abfrage(n) und dauerte 100 Millisekunden. (Dieser Messwert ist von der Gesamt-Auslastung des Servers abhängig.)
Erzgebirge - Wetter | Erzgebirge - Wetter (Mobilgeräte) | Komplette Klimadatenbank